Pays
Station

 

Conditions  météo  pour  Oslo/Gardermoen  -  Norvège    Norvège

  
22 °C
    
 
 

METAR pour Oslo/Gardermoen :

ENGM 231220Z 15004KT 070V200 CAVOK 22/06 Q1025 NOSIG

 

Voici le bulletin pour Oslo/Gardermoen - Norvège.
 
Le bulletin a été fait il y a 8 minutes, à 12:20 UTC .
Le vent soufflait à la vitesse de 2.1 mètres par seconde de Sud/Sud-est (150°), variant entre Est/Nord-est (070°) et Sud/Sud-ouest (200°).
 
La température était de 22 °C, avec un point de rosée à 6 °C.
La température ressentie était de 25 °C.
 
La pression atmosphérique était de 1025 hPa.
L'humidité relative était de 35.4%.
 
Il y avait pas de nuages en-dessous de 1500 mètres et pas de cumulonimbus.
 
La visibilité globale était de supérieure à 10 kilomètres.
 

 
 
 

Pays :   A   B   C   D   E   F   G   H   I   J   K   L   M   N   O   P   Q   R   S   T   U   V   W   Y   Z

 

Partenaires :  Info Météo avec Met'info
Météo Marine avec MeteoMarine.net
Infos Site  |  Infos Légales  |  Crédits  |  Confidentialité
Contactez-nous  |  Ajouter aux favoris
© 2013-2018 METAR - Tous droits réservés